createdAt,value
2022-11-09T00:00:50.756Z,1004.44
2022-11-09T00:01:50.754Z,1004.46
2022-11-09T00:02:50.711Z,1004.42
2022-11-09T00:03:50.718Z,1004.44
2022-11-09T00:04:50.694Z,1004.48
2022-11-09T00:05:50.735Z,1004.42
2022-11-09T00:06:50.700Z,1004.42
2022-11-09T00:07:50.918Z,1004.39
2022-11-09T00:08:50.631Z,1004.50
2022-11-09T00:09:50.671Z,1004.43
2022-11-09T00:10:50.621Z,1004.52
2022-11-09T00:11:50.600Z,1004.45
2022-11-09T00:12:50.595Z,1004.47
2022-11-09T00:13:50.561Z,1004.46
2022-11-09T00:14:50.552Z,1004.44
2022-11-09T00:15:50.605Z,1004.47
2022-11-09T00:16:50.818Z,1004.43
2022-11-09T00:17:50.510Z,1004.49
2022-11-09T00:18:50.519Z,1004.48
2022-11-09T00:19:50.521Z,1004.50
2022-11-09T00:20:50.503Z,1004.45
2022-11-09T00:21:50.475Z,1004.47
2022-11-09T00:22:50.454Z,1004.57
2022-11-09T00:23:50.559Z,1004.47
2022-11-09T00:24:50.421Z,1004.50
2022-11-09T00:25:50.554Z,1004.50
2022-11-09T00:26:50.399Z,1004.50
2022-11-09T00:27:50.411Z,1004.48
2022-11-09T00:28:50.392Z,1004.48
2022-11-09T00:29:50.372Z,1004.46
2022-11-09T00:30:50.350Z,1004.48
2022-11-09T00:31:50.346Z,1004.49
2022-11-09T00:32:50.325Z,1004.46
2022-11-09T00:33:50.328Z,1004.40
2022-11-09T00:34:50.297Z,1004.44
2022-11-09T00:35:50.287Z,1004.42
2022-11-09T00:36:50.288Z,1004.41
2022-11-09T00:37:50.269Z,1004.37
2022-11-09T00:38:50.264Z,1004.42
2022-11-09T00:39:50.230Z,1004.46
2022-11-09T00:40:50.233Z,1004.52
2022-11-09T00:41:50.225Z,1004.43
2022-11-09T00:42:50.215Z,1004.41
2022-11-09T00:43:50.176Z,1004.43
2022-11-09T00:44:50.302Z,1004.42
2022-11-09T00:45:50.157Z,1004.47
2022-11-09T00:46:50.151Z,1004.47
2022-11-09T00:47:50.142Z,1004.42
2022-11-09T00:48:50.124Z,1004.48
2022-11-09T00:49:50.104Z,1004.51
2022-11-09T00:50:50.111Z,1004.46
2022-11-09T00:51:50.108Z,1004.51
2022-11-09T00:52:50.069Z,1004.48
2022-11-09T00:53:50.050Z,1004.50
2022-11-09T00:54:50.040Z,1004.45
2022-11-09T00:55:50.039Z,1004.45
2022-11-09T00:56:50.008Z,1004.43
2022-11-09T00:57:50.009Z,1004.49
2022-11-09T00:58:50.104Z,1004.43
2022-11-09T00:59:50.014Z,1004.46
2022-11-09T01:00:50.062Z,1004.44
2022-11-09T01:01:49.946Z,1004.40
2022-11-09T01:02:49.946Z,1004.41
2022-11-09T01:03:49.939Z,1004.42
2022-11-09T01:04:49.901Z,1004.44
2022-11-09T01:05:49.906Z,1004.45
2022-11-09T01:06:49.908Z,1004.51
2022-11-09T01:07:49.868Z,1004.47
2022-11-09T01:08:49.876Z,1004.44
2022-11-09T01:09:49.856Z,1004.50
2022-11-09T01:10:49.884Z,1004.53
2022-11-09T01:11:49.883Z,1004.49
2022-11-09T01:12:49.842Z,1004.56
2022-11-09T01:13:49.783Z,1004.53
2022-11-09T01:14:49.791Z,1004.48
2022-11-09T01:15:49.775Z,1004.48
2022-11-09T01:16:55.417Z,1004.52
2022-11-09T01:17:53.122Z,1004.56
2022-11-09T01:18:51.023Z,1004.60
2022-11-09T01:19:49.705Z,1004.57
2022-11-09T01:20:49.705Z,1004.59
2022-11-09T01:21:49.684Z,1004.47
2022-11-09T01:22:49.694Z,1004.53
2022-11-09T01:23:49.676Z,1004.52
2022-11-09T01:24:49.644Z,1004.57
2022-11-09T01:25:49.682Z,1004.51
2022-11-09T01:26:49.646Z,1004.59
2022-11-09T01:27:49.645Z,1004.57
2022-11-09T01:28:49.602Z,1004.55
2022-11-09T01:29:49.574Z,1004.58
2022-11-09T01:30:49.587Z,1004.58
2022-11-09T01:31:49.587Z,1004.57
2022-11-09T01:32:49.557Z,1004.54
2022-11-09T01:33:49.557Z,1004.59
2022-11-09T01:34:49.536Z,1004.60
2022-11-09T01:35:49.503Z,1004.59
2022-11-09T01:36:49.515Z,1004.58
2022-11-09T01:37:49.504Z,1004.61
2022-11-09T01:38:49.475Z,1004.61
2022-11-09T01:39:49.446Z,1004.62
2022-11-09T01:40:49.458Z,1004.66
2022-11-09T01:41:49.442Z,1004.70
2022-11-09T01:42:49.418Z,1004.63
2022-11-09T01:43:49.400Z,1004.68
2022-11-09T01:44:49.416Z,1004.68
2022-11-09T01:45:49.384Z,1004.77
2022-11-09T01:46:49.417Z,1004.74
2022-11-09T01:47:56.916Z,1004.77
2022-11-09T01:48:49.322Z,1004.69
2022-11-09T01:49:49.331Z,1004.70
2022-11-09T01:50:49.322Z,1004.70
2022-11-09T01:51:49.321Z,1004.69
2022-11-09T01:52:49.302Z,1004.70
2022-11-09T01:53:49.280Z,1004.65
2022-11-09T01:54:49.242Z,1004.67
2022-11-09T01:55:49.270Z,1004.66
2022-11-09T01:56:49.241Z,1004.67
2022-11-09T01:57:49.232Z,1004.69
2022-11-09T01:58:49.216Z,1004.71
2022-11-09T01:59:49.189Z,1004.66
2022-11-09T02:00:49.296Z,1004.69
2022-11-09T02:01:49.272Z,1004.64
2022-11-09T02:02:49.166Z,1004.64
2022-11-09T02:03:49.155Z,1004.65
2022-11-09T02:04:49.128Z,1004.65
2022-11-09T02:05:49.123Z,1004.63
2022-11-09T02:06:49.165Z,1004.70
2022-11-09T02:07:49.092Z,1004.61
2022-11-09T02:08:49.082Z,1004.59
2022-11-09T02:09:49.060Z,1004.56
2022-11-09T02:10:49.056Z,1004.57
2022-11-09T02:11:49.052Z,1004.63
2022-11-09T02:12:49.021Z,1004.54
2022-11-09T02:13:49.032Z,1004.56
2022-11-09T02:14:49.002Z,1004.52
2022-11-09T02:15:49.002Z,1004.56
2022-11-09T02:16:49.011Z,1004.56
2022-11-09T02:17:48.991Z,1004.56
2022-11-09T02:18:48.971Z,1004.60
2022-11-09T02:19:48.959Z,1004.62
2022-11-09T02:20:48.931Z,1004.64
2022-11-09T02:21:48.950Z,1004.61
2022-11-09T02:22:48.911Z,1004.59
2022-11-09T02:23:48.910Z,1004.62
2022-11-09T02:24:51.788Z,1004.58
2022-11-09T02:25:49.860Z,1004.61
2022-11-09T02:26:48.855Z,1004.66
2022-11-09T02:27:48.849Z,1004.68
2022-11-09T02:28:48.818Z,1004.63
2022-11-09T02:29:48.811Z,1004.64
2022-11-09T02:30:48.776Z,1004.64
2022-11-09T02:31:48.783Z,1004.56
2022-11-09T02:32:48.786Z,1004.61
2022-11-09T02:33:48.761Z,1004.61
2022-11-09T02:34:48.728Z,1004.63
2022-11-09T02:35:48.751Z,1004.62
2022-11-09T02:36:48.705Z,1004.60
2022-11-09T02:37:48.730Z,1004.66
2022-11-09T02:38:48.699Z,1004.69
2022-11-09T02:39:48.684Z,1004.63
2022-11-09T02:40:48.668Z,1004.70
2022-11-09T02:41:48.670Z,1004.66
2022-11-09T02:42:48.679Z,1004.66
2022-11-09T02:43:48.616Z,1004.64
2022-11-09T02:44:48.593Z,1004.64
2022-11-09T02:45:48.603Z,1004.66
2022-11-09T02:46:48.593Z,1004.66
2022-11-09T02:47:48.627Z,1004.62
2022-11-09T02:48:48.579Z,1004.62
2022-11-09T02:49:48.552Z,1004.61
2022-11-09T02:50:48.538Z,1004.60
2022-11-09T02:51:48.524Z,1004.66
2022-11-09T02:52:48.504Z,1004.65
2022-11-09T02:53:48.483Z,1004.68
2022-11-09T02:54:48.465Z,1004.63
2022-11-09T02:55:48.477Z,1004.68
2022-11-09T02:56:48.442Z,1004.66
2022-11-09T02:57:48.453Z,1004.65
2022-11-09T02:58:48.422Z,1004.60
2022-11-09T02:59:48.402Z,1004.67
2022-11-09T03:00:48.436Z,1004.58
2022-11-09T03:01:48.406Z,1004.61
2022-11-09T03:02:48.394Z,1004.59
2022-11-09T03:03:48.385Z,1004.58
2022-11-09T03:04:48.367Z,1004.65
2022-11-09T03:05:48.342Z,1004.60
2022-11-09T03:06:48.360Z,1004.61
2022-11-09T03:07:48.345Z,1004.59
2022-11-09T03:08:48.318Z,1004.72
2022-11-09T03:09:48.305Z,1004.64
2022-11-09T03:10:48.283Z,1004.59
2022-11-09T03:11:48.274Z,1004.65
2022-11-09T03:12:48.255Z,1004.65
2022-11-09T03:13:48.257Z,1004.63
2022-11-09T03:14:48.227Z,1004.64
2022-11-09T03:15:48.197Z,1004.65
2022-11-09T03:16:50.690Z,1004.72
2022-11-09T03:17:48.215Z,1004.70
2022-11-09T03:18:48.177Z,1004.68
2022-11-09T03:19:48.158Z,1004.69
2022-11-09T03:20:48.143Z,1004.60
2022-11-09T03:21:48.143Z,1004.63
2022-11-09T03:22:48.120Z,1004.62
2022-11-09T03:23:48.090Z,1004.61
2022-11-09T03:24:48.104Z,1004.64
2022-11-09T03:25:48.069Z,1004.64
2022-11-09T03:26:48.081Z,1004.64
2022-11-09T03:27:48.075Z,1004.63
2022-11-09T03:28:48.037Z,1004.65
2022-11-09T03:29:48.018Z,1004.61
2022-11-09T03:30:47.999Z,1004.63
2022-11-09T03:31:48.014Z,1004.68
2022-11-09T03:32:50.610Z,1004.71
2022-11-09T03:33:47.970Z,1004.72
2022-11-09T03:34:47.987Z,1004.69
2022-11-09T03:35:47.959Z,1004.71
2022-11-09T03:36:47.956Z,1004.76
2022-11-09T03:37:47.996Z,1004.70
2022-11-09T03:38:47.914Z,1004.78
2022-11-09T03:39:47.996Z,1004.73
2022-11-09T03:40:47.884Z,1004.78
2022-11-09T03:41:47.880Z,1004.83
2022-11-09T03:42:47.883Z,1004.84
2022-11-09T03:43:47.835Z,1004.77
2022-11-09T03:44:47.819Z,1004.81
2022-11-09T03:45:47.812Z,1004.82
2022-11-09T03:46:47.799Z,1004.78
2022-11-09T03:47:47.798Z,1004.77
2022-11-09T03:48:47.798Z,1004.79
2022-11-09T03:49:47.781Z,1004.82
2022-11-09T03:50:47.750Z,1004.85
2022-11-09T03:51:47.762Z,1004.88
2022-11-09T03:52:47.726Z,1004.83
2022-11-09T03:53:47.717Z,1004.81
2022-11-09T03:54:47.694Z,1004.83
2022-11-09T03:55:47.699Z,1004.80
2022-11-09T03:56:47.699Z,1004.84
2022-11-09T03:57:47.647Z,1004.82
2022-11-09T03:58:47.646Z,1004.87
2022-11-09T03:59:47.661Z,1004.81
2022-11-09T04:00:47.628Z,1004.96
2022-11-09T04:01:47.837Z,1004.91
2022-11-09T04:02:47.587Z,1004.93
2022-11-09T04:03:47.621Z,1004.92
2022-11-09T04:04:47.577Z,1004.99
2022-11-09T04:05:47.559Z,1004.97
2022-11-09T04:06:47.606Z,1004.96
2022-11-09T04:07:47.545Z,1004.90
2022-11-09T04:08:51.341Z,1004.97
2022-11-09T04:09:47.508Z,1004.87
2022-11-09T04:10:47.486Z,1005.00
2022-11-09T04:11:47.474Z,1004.98
2022-11-09T04:12:47.455Z,1005.00
2022-11-09T04:13:47.486Z,1004.97
2022-11-09T04:14:47.468Z,1005.00
2022-11-09T04:15:47.435Z,1005.00
2022-11-09T04:16:47.404Z,1005.01
2022-11-09T04:17:47.417Z,1005.01
2022-11-09T04:18:47.394Z,1005.04
2022-11-09T04:19:47.375Z,1005.02
2022-11-09T04:20:47.369Z,1005.00
2022-11-09T04:21:47.341Z,1005.05
2022-11-09T04:22:47.356Z,1005.02
2022-11-09T04:23:47.338Z,1004.98
2022-11-09T04:24:47.314Z,1005.03
2022-11-09T04:25:47.301Z,1004.96
2022-11-09T04:26:47.314Z,1005.02
2022-11-09T04:27:47.275Z,1005.02
2022-11-09T04:28:47.276Z,1004.97
2022-11-09T04:29:47.258Z,1004.90
2022-11-09T04:30:47.240Z,1004.90
2022-11-09T04:31:47.236Z,1004.90
2022-11-09T04:32:47.213Z,1004.95
2022-11-09T04:33:47.193Z,1004.89
2022-11-09T04:34:47.186Z,1004.89
2022-11-09T04:35:47.162Z,1004.88
2022-11-09T04:36:47.175Z,1004.91
2022-11-09T04:37:47.148Z,1004.92
2022-11-09T04:38:47.141Z,1004.93
2022-11-09T04:39:47.115Z,1004.99
2022-11-09T04:40:47.131Z,1005.02
2022-11-09T04:41:47.085Z,1004.96
2022-11-09T04:42:47.076Z,1004.96
2022-11-09T04:43:47.091Z,1004.97
2022-11-09T04:44:47.058Z,1005.03
2022-11-09T04:45:47.032Z,1004.97
2022-11-09T04:46:47.023Z,1004.96
2022-11-09T04:47:47.025Z,1005.06
2022-11-09T04:48:47.035Z,1005.05
2022-11-09T04:49:47.007Z,1005.04
2022-11-09T04:50:46.962Z,1004.99
2022-11-09T04:51:46.962Z,1005.04
2022-11-09T04:52:46.944Z,1005.09
2022-11-09T04:53:46.941Z,1005.12
2022-11-09T04:54:46.920Z,1005.11
2022-11-09T04:55:46.946Z,1005.19
2022-11-09T04:56:46.890Z,1005.09
2022-11-09T04:57:46.885Z,1005.10
2022-11-09T04:58:46.894Z,1005.08
2022-11-09T04:59:46.866Z,1005.09
2022-11-09T05:00:46.853Z,1005.09
2022-11-09T05:01:46.843Z,1005.10
2022-11-09T05:02:46.823Z,1005.15
2022-11-09T05:03:46.935Z,1005.14
2022-11-09T05:04:46.808Z,1005.15
2022-11-09T05:05:48.587Z,1005.22
2022-11-09T05:06:46.870Z,1005.23
2022-11-09T05:07:46.742Z,1005.26
2022-11-09T05:08:46.779Z,1005.32
2022-11-09T05:09:46.725Z,1005.32
2022-11-09T05:10:46.733Z,1005.33
2022-11-09T05:11:46.696Z,1005.25
2022-11-09T05:12:46.679Z,1005.28
2022-11-09T05:13:46.713Z,1005.25
2022-11-09T05:14:46.680Z,1005.28
2022-11-09T05:15:46.661Z,1005.28
2022-11-09T05:16:46.628Z,1005.20
2022-11-09T05:17:46.640Z,1005.25
2022-11-09T05:18:46.630Z,1005.28
2022-11-09T05:19:46.588Z,1005.26
2022-11-09T05:20:46.603Z,1005.28
2022-11-09T05:21:46.569Z,1005.27
2022-11-09T05:22:46.566Z,1005.23
2022-11-09T05:23:46.563Z,1005.25
2022-11-09T05:24:46.540Z,1005.25
2022-11-09T05:25:46.521Z,1005.28
2022-11-09T05:26:46.534Z,1005.24
2022-11-09T05:27:46.502Z,1005.25
2022-11-09T05:28:46.500Z,1005.26
2022-11-09T05:29:46.478Z,1005.25
2022-11-09T05:30:46.448Z,1005.23
2022-11-09T05:31:51.848Z,1005.18
2022-11-09T05:32:47.429Z,1005.24
2022-11-09T05:33:46.439Z,1005.23
2022-11-09T05:34:46.405Z,1005.23
2022-11-09T05:35:46.401Z,1005.27
2022-11-09T05:36:46.387Z,1005.22
2022-11-09T05:37:46.353Z,1005.24
2022-11-09T05:38:46.345Z,1005.24
2022-11-09T05:39:46.377Z,1005.27
2022-11-09T05:40:46.330Z,1005.23
2022-11-09T05:41:46.313Z,1005.21
2022-11-09T05:42:46.323Z,1005.22
2022-11-09T05:43:46.290Z,1005.18
2022-11-09T05:44:46.312Z,1005.22
2022-11-09T05:45:46.265Z,1005.12
2022-11-09T05:46:46.253Z,1005.18
2022-11-09T05:47:46.253Z,1005.14
2022-11-09T05:48:46.216Z,1005.16
2022-11-09T05:49:46.243Z,1005.14
2022-11-09T05:50:46.193Z,1005.12
2022-11-09T05:51:46.178Z,1005.19
2022-11-09T05:52:46.173Z,1005.19
2022-11-09T05:53:47.139Z,1005.26
2022-11-09T05:54:46.144Z,1005.28
2022-11-09T05:55:46.122Z,1005.24
2022-11-09T05:56:46.146Z,1005.23
2022-11-09T05:57:46.093Z,1005.29
2022-11-09T05:58:46.118Z,1005.25
2022-11-09T05:59:46.097Z,1005.32
2022-11-09T06:00:46.055Z,1005.33
2022-11-09T06:01:46.130Z,1005.32
2022-11-09T06:02:46.051Z,1005.42
2022-11-09T06:03:46.039Z,1005.32
2022-11-09T06:04:46.024Z,1005.29
2022-11-09T06:05:46.003Z,1005.29
2022-11-09T06:06:46.020Z,1005.39
2022-11-09T06:07:45.976Z,1005.38
2022-11-09T06:08:45.963Z,1005.46
2022-11-09T06:09:45.966Z,1005.41
2022-11-09T06:10:45.932Z,1005.41
2022-11-09T06:11:45.912Z,1005.42
2022-11-09T06:12:45.915Z,1005.31
2022-11-09T06:13:45.933Z,1005.32
2022-11-09T06:14:45.900Z,1005.36
2022-11-09T06:15:45.886Z,1005.36
2022-11-09T06:16:45.878Z,1005.48
2022-11-09T06:17:45.856Z,1005.46
2022-11-09T06:18:45.852Z,1005.46
2022-11-09T06:19:45.824Z,1005.52
2022-11-09T06:20:45.828Z,1005.49
2022-11-09T06:21:45.812Z,1005.46
2022-11-09T06:22:45.804Z,1005.46
2022-11-09T06:23:45.773Z,1005.46
2022-11-09T06:24:45.774Z,1005.42
2022-11-09T06:25:45.746Z,1005.49
2022-11-09T06:26:45.731Z,1005.48
2022-11-09T06:27:45.715Z,1005.52
2022-11-09T06:28:45.725Z,1005.53
2022-11-09T06:29:45.942Z,1005.45
2022-11-09T06:30:45.668Z,1005.52
2022-11-09T06:31:45.685Z,1005.47
2022-11-09T06:32:45.655Z,1005.49
2022-11-09T06:33:45.640Z,1005.47
2022-11-09T06:34:45.624Z,1005.39
2022-11-09T06:35:45.664Z,1005.44
2022-11-09T06:36:45.600Z,1005.38
2022-11-09T06:37:45.577Z,1005.38
2022-11-09T06:38:45.570Z,1005.35
2022-11-09T06:39:45.579Z,1005.31
2022-11-09T06:40:45.552Z,1005.38
2022-11-09T06:41:47.575Z,1005.42
2022-11-09T06:42:45.604Z,1005.44
2022-11-09T06:43:45.519Z,1005.45
2022-11-09T06:44:45.501Z,1005.46
2022-11-09T06:45:45.491Z,1005.51
2022-11-09T06:46:45.459Z,1005.52
2022-11-09T06:47:45.495Z,1005.51
2022-11-09T06:48:48.316Z,1005.48
2022-11-09T06:49:46.442Z,1005.50
2022-11-09T06:50:45.408Z,1005.52
2022-11-09T06:51:45.427Z,1005.53
2022-11-09T06:52:45.411Z,1005.58
2022-11-09T06:53:45.411Z,1005.62
2022-11-09T06:54:45.401Z,1005.60
2022-11-09T06:55:50.238Z,1005.66
2022-11-09T06:56:46.362Z,1005.60
2022-11-09T06:57:45.320Z,1005.63
2022-11-09T06:58:45.382Z,1005.57
2022-11-09T06:59:45.312Z,1005.60
2022-11-09T07:00:45.309Z,1005.64
2022-11-09T07:01:45.336Z,1005.72
2022-11-09T07:02:45.259Z,1005.77
2022-11-09T07:03:45.257Z,1005.79
2022-11-09T07:04:45.237Z,1005.83
2022-11-09T07:05:45.239Z,1005.85
2022-11-09T07:06:45.488Z,1005.86
2022-11-09T07:07:45.205Z,1005.84
2022-11-09T07:08:45.197Z,1005.88
2022-11-09T07:09:45.200Z,1005.91
2022-11-09T07:10:45.157Z,1005.97
2022-11-09T07:11:45.149Z,1005.88
2022-11-09T07:12:45.125Z,1005.91
2022-11-09T07:13:46.688Z,1005.88
2022-11-09T07:14:45.140Z,1005.86
2022-11-09T07:15:45.084Z,1005.84
2022-11-09T07:16:45.092Z,1005.93
2022-11-09T07:17:45.086Z,1005.90
2022-11-09T07:18:45.067Z,1005.91
2022-11-09T07:19:45.053Z,1005.88
2022-11-09T07:20:45.043Z,1005.87
2022-11-09T07:21:45.019Z,1005.91
2022-11-09T07:22:45.020Z,1005.88
2022-11-09T07:23:44.976Z,1005.95
2022-11-09T07:24:44.985Z,1005.96
2022-11-09T07:25:44.970Z,1005.99
2022-11-09T07:26:44.942Z,1005.95
2022-11-09T07:27:44.937Z,1005.97
2022-11-09T07:28:44.924Z,1005.96
2022-11-09T07:29:44.938Z,1005.99
2022-11-09T07:30:44.894Z,1005.98
2022-11-09T07:31:44.898Z,1005.98
2022-11-09T07:33:45.856Z,1005.97
2022-11-09T07:34:44.855Z,1006.00
2022-11-09T07:35:44.834Z,1006.02
2022-11-09T07:36:44.834Z,1006.01
2022-11-09T07:37:44.817Z,1006.04
2022-11-09T07:38:44.806Z,1006.03
2022-11-09T07:39:44.808Z,1006.05
2022-11-09T07:40:44.784Z,1006.07
2022-11-09T07:41:44.773Z,1006.07
2022-11-09T07:42:44.742Z,1006.10
2022-11-09T07:43:44.732Z,1006.06
2022-11-09T07:44:44.740Z,1006.04
2022-11-09T07:45:44.692Z,1006.05
2022-11-09T07:46:44.698Z,1006.02
2022-11-09T07:47:44.716Z,1006.03
2022-11-09T07:48:52.492Z,1006.10
2022-11-09T07:49:44.660Z,1006.09
2022-11-09T07:50:44.660Z,1006.01
2022-11-09T07:51:44.625Z,1006.07
2022-11-09T07:52:44.619Z,1006.11
2022-11-09T07:53:44.619Z,1006.06
2022-11-09T07:54:48.247Z,1006.05
2022-11-09T07:55:45.602Z,1006.08
2022-11-09T07:56:44.580Z,1006.12
2022-11-09T07:57:44.572Z,1006.13
2022-11-09T07:58:44.547Z,1006.14
2022-11-09T07:59:44.543Z,1006.15
2022-11-09T08:00:44.550Z,1006.17
2022-11-09T08:01:44.527Z,1006.22
2022-11-09T08:02:44.506Z,1006.18
2022-11-09T08:03:44.483Z,1006.23
2022-11-09T08:04:44.455Z,1006.19
2022-11-09T08:05:44.465Z,1006.24
2022-11-09T08:06:44.512Z,1006.25
2022-11-09T08:07:44.430Z,1006.30
2022-11-09T08:08:44.413Z,1006.29
2022-11-09T08:09:44.398Z,1006.20
2022-11-09T08:10:48.263Z,1006.26
2022-11-09T08:11:44.378Z,1006.24
2022-11-09T08:12:44.385Z,1006.25
2022-11-09T08:13:44.342Z,1006.24
2022-11-09T08:14:44.356Z,1006.25
2022-11-09T08:15:44.340Z,1006.26
2022-11-09T08:16:44.315Z,1006.24
2022-11-09T08:17:44.316Z,1006.24
2022-11-09T08:18:44.304Z,1006.26
2022-11-09T08:19:44.274Z,1006.24
2022-11-09T08:20:44.262Z,1006.24
2022-11-09T08:21:44.233Z,1006.22
2022-11-09T08:22:44.249Z,1006.32
2022-11-09T08:23:44.231Z,1006.30
2022-11-09T08:24:44.222Z,1006.28
2022-11-09T08:25:44.223Z,1006.27
2022-11-09T08:26:44.182Z,1006.24
2022-11-09T08:27:44.173Z,1006.25
2022-11-09T08:28:44.188Z,1006.34
2022-11-09T08:29:44.143Z,1006.31
2022-11-09T08:30:44.164Z,1006.32
2022-11-09T08:31:44.122Z,1006.39
2022-11-09T08:32:44.112Z,1006.30
2022-11-09T08:33:44.114Z,1006.32
2022-11-09T08:34:44.090Z,1006.31
2022-11-09T08:35:46.916Z,1006.36
2022-11-09T08:36:45.046Z,1006.34
2022-11-09T08:37:44.042Z,1006.39
2022-11-09T08:38:44.052Z,1006.39
2022-11-09T08:39:44.008Z,1006.39
2022-11-09T08:40:44.037Z,1006.42
2022-11-09T08:41:43.982Z,1006.41
2022-11-09T08:42:43.992Z,1006.41
2022-11-09T08:43:43.952Z,1006.42
2022-11-09T08:44:43.960Z,1006.41
2022-11-09T08:45:43.948Z,1006.43
2022-11-09T08:46:43.938Z,1006.40
2022-11-09T08:47:43.919Z,1006.45
2022-11-09T08:48:43.908Z,1006.44
2022-11-09T08:49:43.887Z,1006.41
2022-11-09T08:50:43.889Z,1006.48
2022-11-09T08:51:43.848Z,1006.42
2022-11-09T08:52:43.860Z,1006.43
2022-11-09T08:53:43.848Z,1006.45
2022-11-09T08:54:43.810Z,1006.46
2022-11-09T08:55:48.388Z,1006.47
2022-11-09T08:56:44.803Z,1006.44
2022-11-09T08:57:43.776Z,1006.44
2022-11-09T08:58:43.780Z,1006.44
2022-11-09T08:59:43.767Z,1006.39
2022-11-09T09:00:43.767Z,1006.46
2022-11-09T09:01:44.686Z,1006.50
2022-11-09T09:02:43.732Z,1006.45
2022-11-09T09:03:43.722Z,1006.46
2022-11-09T09:04:43.687Z,1006.46
2022-11-09T09:05:43.686Z,1006.42
2022-11-09T09:06:43.899Z,1006.54
2022-11-09T09:07:43.665Z,1006.56
2022-11-09T09:08:45.541Z,1006.51
2022-11-09T09:09:43.637Z,1006.50
2022-11-09T09:10:43.641Z,1006.41
2022-11-09T09:11:43.594Z,1006.53
2022-11-09T09:12:43.617Z,1006.50
2022-11-09T09:13:43.917Z,1006.47
2022-11-09T09:14:43.568Z,1006.47
2022-11-09T09:15:43.545Z,1006.51
2022-11-09T09:16:43.531Z,1006.50
2022-11-09T09:17:43.571Z,1006.46
2022-11-09T09:18:43.506Z,1006.49
2022-11-09T09:19:48.772Z,1006.44
2022-11-09T09:20:44.493Z,1006.47
2022-11-09T09:21:43.486Z,1006.45
2022-11-09T09:22:43.480Z,1006.50
2022-11-09T09:23:43.457Z,1006.53
2022-11-09T09:24:43.438Z,1006.49
2022-11-09T09:25:43.414Z,1006.53
2022-11-09T09:26:43.416Z,1006.50
2022-11-09T09:27:43.429Z,1006.53
2022-11-09T09:28:43.401Z,1006.46
2022-11-09T09:29:43.386Z,1006.50
2022-11-09T09:30:43.364Z,1006.53
2022-11-09T09:31:43.358Z,1006.52
2022-11-09T09:32:43.323Z,1006.46
2022-11-09T09:33:43.349Z,1006.49
2022-11-09T09:34:43.302Z,1006.55
2022-11-09T09:35:43.281Z,1006.56
2022-11-09T09:36:47.717Z,1006.58
2022-11-09T09:37:44.278Z,1006.56
2022-11-09T09:38:43.251Z,1006.59
2022-11-09T09:39:43.269Z,1006.55
2022-11-09T09:40:43.246Z,1006.59
2022-11-09T09:41:43.229Z,1006.64
2022-11-09T09:42:43.220Z,1006.63
2022-11-09T09:43:43.942Z,1006.64
2022-11-09T09:44:43.198Z,1006.68
2022-11-09T09:45:43.172Z,1006.70
2022-11-09T09:46:43.177Z,1006.71
2022-11-09T09:47:43.157Z,1006.72
2022-11-09T09:48:43.133Z,1006.75
2022-11-09T09:49:43.161Z,1006.74
2022-11-09T09:50:43.127Z,1006.80
2022-11-09T09:51:43.102Z,1006.78
2022-11-09T09:52:50.661Z,1006.80
2022-11-09T09:53:44.060Z,1006.76
2022-11-09T09:54:43.045Z,1006.80
2022-11-09T09:55:43.063Z,1006.83
2022-11-09T09:56:43.013Z,1006.87
2022-11-09T09:57:43.025Z,1006.86
2022-11-09T09:58:43.007Z,1006.93
2022-11-09T09:59:43.017Z,1006.86
2022-11-09T10:00:42.990Z,1006.90
2022-11-09T10:01:42.958Z,1006.95
2022-11-09T10:02:42.986Z,1006.92
2022-11-09T10:03:42.927Z,1007.06
2022-11-09T10:04:42.964Z,1006.96
2022-11-09T10:05:42.928Z,1006.97
2022-11-09T10:06:42.963Z,1006.99
2022-11-09T10:07:42.892Z,1006.97
2022-11-09T10:08:42.858Z,1007.04
2022-11-09T10:09:42.866Z,1007.03
2022-11-09T10:10:42.852Z,1007.05
2022-11-09T10:11:42.851Z,1007.03
2022-11-09T10:12:42.846Z,1007.03
2022-11-09T10:13:42.831Z,1007.03
2022-11-09T10:14:42.793Z,1007.05
2022-11-09T10:15:43.531Z,1007.04
2022-11-09T10:16:42.774Z,1007.09
2022-11-09T10:17:42.747Z,1007.02
2022-11-09T10:18:42.835Z,1007.04
2022-11-09T10:19:42.801Z,1007.05
2022-11-09T10:20:42.706Z,1007.06
2022-11-09T10:21:42.736Z,1007.09
2022-11-09T10:22:42.690Z,1007.07
2022-11-09T10:23:42.711Z,1007.03
2022-11-09T10:24:58.662Z,1007.09
2022-11-09T10:26:03.189Z,1007.03
2022-11-09T10:26:43.712Z,1007.07
2022-11-09T10:27:42.640Z,1007.07
2022-11-09T10:29:09.669Z,1007.07
2022-11-09T10:29:43.631Z,1007.09
2022-11-09T10:30:42.887Z,1007.15
2022-11-09T10:31:42.581Z,1007.13
2022-11-09T10:32:42.612Z,1007.11
2022-11-09T10:33:42.590Z,1007.13
2022-11-09T10:34:42.535Z,1007.17
2022-11-09T10:35:42.549Z,1007.16
2022-11-09T10:36:42.822Z,1007.06
2022-11-09T10:37:42.515Z,1007.14
2022-11-09T10:38:42.485Z,1007.18
2022-11-09T10:39:42.483Z,1007.17
2022-11-09T10:40:42.469Z,1007.22
2022-11-09T10:41:42.471Z,1007.19
2022-11-09T10:42:42.467Z,1007.27
2022-11-09T10:43:42.431Z,1007.27
2022-11-09T10:44:42.410Z,1007.22
2022-11-09T10:45:42.414Z,1007.27
2022-11-09T10:46:42.436Z,1007.23
2022-11-09T10:47:42.382Z,1007.27
2022-11-09T10:48:42.403Z,1007.28
2022-11-09T10:49:42.348Z,1007.29
2022-11-09T10:50:42.336Z,1007.31
2022-11-09T10:51:42.319Z,1007.27
2022-11-09T10:52:47.280Z,1007.24
2022-11-09T10:53:43.342Z,1007.29
2022-11-09T10:54:42.308Z,1007.31
2022-11-09T10:55:42.262Z,1007.26
2022-11-09T10:57:05.069Z,1007.28
2022-11-09T10:57:43.463Z,1007.28
2022-11-09T10:58:42.276Z,1007.30
2022-11-09T10:59:42.475Z,1007.26
2022-11-09T11:00:42.207Z,1007.26
2022-11-09T11:01:42.286Z,1007.24
2022-11-09T11:02:42.200Z,1007.30
2022-11-09T11:03:42.293Z,1007.28
2022-11-09T11:04:42.175Z,1007.24
2022-11-09T11:05:42.133Z,1007.30
2022-11-09T11:06:42.187Z,1007.29
2022-11-09T11:07:42.150Z,1007.33
2022-11-09T11:08:42.107Z,1007.31
2022-11-09T11:09:42.092Z,1007.30
2022-11-09T11:10:42.076Z,1007.29
2022-11-09T11:11:42.055Z,1007.26
2022-11-09T11:12:42.042Z,1007.29
2022-11-09T11:13:42.051Z,1007.26
2022-11-09T11:14:42.022Z,1007.29
2022-11-09T11:15:42.036Z,1007.30
2022-11-09T11:16:42.006Z,1007.29
2022-11-09T11:17:42.007Z,1007.31
2022-11-09T11:18:41.952Z,1007.31
2022-11-09T11:19:41.974Z,1007.31
2022-11-09T11:20:41.949Z,1007.24
2022-11-09T11:21:41.945Z,1007.25
2022-11-09T11:22:41.902Z,1007.25
2022-11-09T11:23:41.912Z,1007.27
2022-11-09T11:24:41.892Z,1007.22
2022-11-09T11:25:41.894Z,1007.35
2022-11-09T11:26:41.900Z,1007.33
2022-11-09T11:27:41.859Z,1007.29
2022-11-09T11:28:41.844Z,1007.25
2022-11-09T11:29:41.833Z,1007.29
2022-11-09T11:30:41.846Z,1007.25
2022-11-09T11:31:41.796Z,1007.27
2022-11-09T11:32:47.103Z,1007.28
2022-11-09T11:33:42.767Z,1007.34
2022-11-09T11:34:59.048Z,1007.33
2022-11-09T11:35:42.758Z,1007.31
2022-11-09T11:36:41.736Z,1007.30
2022-11-09T11:37:41.717Z,1007.29
2022-11-09T11:38:41.712Z,1007.29
2022-11-09T11:39:41.723Z,1007.40
2022-11-09T11:40:41.706Z,1007.35
2022-11-09T11:41:41.675Z,1007.34
2022-11-09T11:42:41.734Z,1007.37
2022-11-09T11:43:41.653Z,1007.29
2022-11-09T11:44:41.634Z,1007.31
2022-11-09T11:45:42.388Z,1007.31
2022-11-09T11:46:41.662Z,1007.36
2022-11-09T11:47:41.602Z,1007.40
2022-11-09T11:48:41.621Z,1007.35
2022-11-09T11:49:41.612Z,1007.35
2022-11-09T11:50:41.547Z,1007.38
2022-11-09T11:51:41.583Z,1007.37
2022-11-09T11:52:41.518Z,1007.34
2022-11-09T11:53:43.575Z,1007.37
2022-11-09T11:54:41.514Z,1007.36
2022-11-09T11:55:41.505Z,1007.32
2022-11-09T11:56:41.504Z,1007.36
2022-11-09T11:57:41.471Z,1007.36
2022-11-09T11:58:41.447Z,1007.39
2022-11-09T11:59:41.442Z,1007.36
2022-11-09T12:00:41.435Z,1007.31
2022-11-09T12:01:41.408Z,1007.42
2022-11-09T12:02:41.486Z,1007.35
2022-11-09T12:03:41.441Z,1007.45
2022-11-09T12:04:41.371Z,1007.44
2022-11-09T12:05:41.370Z,1007.44
2022-11-09T12:06:44.118Z,1007.47